createdAt,value
2019-05-06T00:02:04.499Z,11.70
2019-05-06T00:04:35.737Z,12.70
2019-05-06T00:07:07.628Z,11.78
2019-05-06T00:09:39.267Z,12.03
2019-05-06T00:12:11.032Z,13.32
2019-05-06T00:14:43.670Z,12.20
2019-05-06T00:17:15.714Z,15.43
2019-05-06T00:19:47.551Z,14.58
2019-05-06T00:22:19.187Z,16.02
2019-05-06T00:24:54.592Z,15.65
2019-05-06T00:27:30.168Z,13.60
2019-05-06T00:30:04.329Z,14.00
2019-05-06T00:32:34.946Z,12.20
2019-05-06T00:35:07.532Z,12.73
2019-05-06T00:37:39.260Z,13.83
2019-05-06T00:40:14.034Z,13.70
2019-05-06T00:42:46.414Z,15.98
2019-05-06T00:45:17.858Z,12.03
2019-05-06T00:47:49.362Z,11.83
2019-05-06T00:50:20.852Z,11.43
2019-05-06T00:52:53.990Z,10.75
2019-05-06T00:55:25.359Z,11.03
2019-05-06T00:57:56.816Z,10.32
2019-05-06T01:00:29.989Z,11.05
2019-05-06T01:03:01.396Z,11.70
2019-05-06T01:05:33.725Z,11.45
2019-05-06T01:08:05.728Z,10.72
2019-05-06T01:10:37.706Z,12.43
2019-05-06T01:13:10.501Z,14.87
2019-05-06T01:15:56.160Z,11.73
2019-05-06T01:18:28.918Z,10.93
2019-05-06T01:21:14.330Z,11.38
2019-05-06T01:23:45.584Z,10.80
2019-05-06T01:26:17.446Z,10.85
2019-05-06T01:28:48.792Z,9.80
2019-05-06T01:31:20.252Z,10.72
2019-05-06T01:33:53.437Z,9.73
2019-05-06T01:36:25.070Z,9.85
2019-05-06T01:39:04.422Z,10.60
2019-05-06T01:41:44.672Z,10.90
2019-05-06T01:44:16.531Z,11.25
2019-05-06T01:46:47.979Z,11.95
2019-05-06T01:49:19.948Z,13.15
2019-05-06T01:51:51.600Z,11.97
2019-05-06T01:54:24.857Z,11.28
2019-05-06T01:56:56.832Z,10.95
2019-05-06T01:59:28.412Z,12.37
2019-05-06T02:02:01.151Z,12.25
2019-05-06T02:04:33.733Z,12.10
2019-05-06T02:07:05.752Z,11.60
2019-05-06T02:09:39.669Z,11.73
2019-05-06T02:12:13.662Z,11.73
2019-05-06T02:14:44.571Z,11.45
2019-05-06T02:17:16.482Z,10.58
2019-05-06T02:19:48.182Z,11.25
2019-05-06T02:22:24.297Z,10.18
2019-05-06T02:24:57.428Z,11.83
2019-05-06T02:27:29.396Z,9.28
2019-05-06T02:30:07.945Z,10.32
2019-05-06T02:32:47.713Z,10.45
2019-05-06T02:35:26.019Z,11.00
2019-05-06T02:37:56.199Z,10.93
2019-05-06T02:40:29.301Z,11.35
2019-05-06T02:43:03.318Z,12.30
2019-05-06T02:45:33.785Z,10.85
2019-05-06T02:48:16.157Z,11.60
2019-05-06T02:50:49.122Z,10.75
2019-05-06T02:53:23.571Z,11.80
2019-05-06T02:55:55.608Z,10.25
2019-05-06T02:58:27.275Z,10.23
2019-05-06T03:00:58.855Z,10.25
2019-05-06T03:03:33.354Z,9.73
2019-05-06T03:06:03.855Z,11.53
2019-05-06T03:08:36.354Z,10.45
2019-05-06T03:11:08.375Z,10.53
2019-05-06T03:13:43.447Z,9.53
2019-05-06T03:16:14.240Z,11.03
2019-05-06T03:18:45.929Z,10.13
2019-05-06T03:21:36.985Z,11.22
2019-05-06T03:24:23.459Z,10.63
2019-05-06T03:26:56.990Z,11.43
2019-05-06T03:29:27.494Z,10.70
2019-05-06T03:31:59.317Z,10.60
2019-05-06T03:34:52.671Z,9.18
2019-05-06T03:37:07.675Z,11.25
2019-05-06T03:39:37.085Z,10.38
2019-05-06T03:42:08.720Z,10.60
2019-05-06T03:44:43.595Z,10.65
2019-05-06T03:47:15.888Z,9.83
2019-05-06T03:49:50.136Z,9.80
2019-05-06T03:52:23.330Z,10.60
2019-05-06T03:54:54.425Z,11.00
2019-05-06T03:57:26.154Z,10.65
2019-05-06T03:59:57.737Z,11.85
2019-05-06T04:02:29.588Z,10.70
2019-05-06T04:05:03.572Z,11.15
2019-05-06T04:07:34.569Z,10.43
2019-05-06T04:10:07.404Z,14.60
2019-05-06T04:12:43.326Z,10.93
2019-05-06T04:15:14.174Z,11.35
2019-05-06T04:17:47.356Z,11.30
2019-05-06T04:20:26.644Z,50.28
2019-05-06T04:22:59.638Z,13.48
2019-05-06T04:25:48.791Z,11.83
2019-05-06T04:28:23.815Z,10.63
2019-05-06T04:30:55.014Z,11.53
2019-05-06T04:33:27.033Z,11.18
2019-05-06T04:35:58.829Z,10.35
2019-05-06T04:38:30.180Z,10.13
2019-05-06T04:41:02.887Z,9.73
2019-05-06T04:43:34.889Z,9.63
2019-05-06T04:46:06.661Z,11.10
2019-05-06T04:48:38.352Z,9.78
2019-05-06T04:51:09.660Z,9.43
2019-05-06T04:53:44.301Z,10.13
2019-05-06T04:56:16.274Z,10.98
2019-05-06T04:58:48.100Z,9.70
2019-05-06T05:01:19.593Z,9.88
2019-05-06T05:03:53.543Z,9.90
2019-05-06T05:06:24.490Z,9.68
2019-05-06T05:08:55.882Z,9.73
2019-05-06T05:11:33.245Z,10.63
2019-05-06T05:14:09.254Z,10.58
2019-05-06T05:16:42.288Z,10.18
2019-05-06T05:19:15.283Z,10.32
2019-05-06T05:21:46.968Z,10.38
2019-05-06T05:24:18.761Z,10.85
2019-05-06T05:26:52.290Z,9.53
2019-05-06T05:29:23.924Z,10.00
2019-05-06T05:31:55.884Z,9.00
2019-05-06T05:34:38.079Z,9.10
2019-05-06T05:37:02.799Z,10.98
2019-05-06T05:39:33.562Z,9.98
2019-05-06T05:42:06.677Z,10.10
2019-05-06T05:44:39.485Z,10.03
2019-05-06T05:47:12.370Z,10.40
2019-05-06T05:50:02.250Z,10.30
2019-05-06T05:52:33.228Z,8.70
2019-05-06T05:55:05.184Z,9.58
2019-05-06T05:57:37.017Z,9.83
2019-05-06T06:00:08.684Z,9.80
2019-05-06T06:02:43.441Z,10.48
2019-05-06T06:05:13.247Z,10.95
2019-05-06T06:07:45.094Z,8.78
2019-05-06T06:10:29.787Z,8.68
2019-05-06T06:13:02.143Z,9.63
2019-05-06T06:15:52.132Z,8.80
2019-05-06T06:18:33.220Z,11.28
2019-05-06T06:21:17.666Z,8.70
2019-05-06T06:23:41.971Z,9.40
2019-05-06T06:26:13.739Z,9.70
2019-05-06T06:28:45.232Z,9.73
2019-05-06T06:31:18.620Z,9.38
2019-05-06T06:33:52.980Z,10.20
2019-05-06T06:36:37.636Z,11.30
2019-05-06T06:39:12.429Z,9.98
2019-05-06T06:41:43.559Z,9.95
2019-05-06T06:44:16.409Z,9.20
2019-05-06T06:46:48.450Z,9.28
2019-05-06T06:49:21.716Z,9.55
2019-05-06T06:51:53.249Z,8.83
2019-05-06T06:54:24.957Z,8.75
2019-05-06T06:57:06.167Z,8.35
2019-05-06T06:59:32.168Z,9.28
2019-05-06T07:02:14.012Z,8.65
2019-05-06T07:04:47.048Z,7.78
2019-05-06T07:07:20.104Z,7.70
2019-05-06T07:09:53.276Z,6.90
2019-05-06T07:12:24.536Z,14.28
2019-05-06T07:15:02.459Z,7.45
2019-05-06T07:17:34.532Z,8.10
2019-05-06T07:20:17.130Z,8.15
2019-05-06T07:22:48.979Z,8.20
2019-05-06T07:25:22.641Z,7.92
2019-05-06T07:27:53.673Z,9.50
2019-05-06T07:30:26.416Z,9.65
2019-05-06T07:33:00.422Z,8.40
2019-05-06T07:35:39.451Z,9.45
2019-05-06T07:38:04.321Z,9.10
2019-05-06T07:40:36.257Z,8.83
2019-05-06T07:43:25.708Z,8.40
2019-05-06T07:45:58.624Z,8.13
2019-05-06T07:48:31.961Z,11.28
2019-05-06T07:51:03.330Z,9.83
2019-05-06T07:53:35.024Z,10.25
2019-05-06T07:56:06.572Z,11.25
2019-05-06T07:58:38.181Z,10.95
2019-05-06T08:01:09.945Z,10.78
2019-05-06T08:03:42.777Z,10.50
2019-05-06T08:06:14.768Z,8.83
2019-05-06T08:08:46.689Z,11.53
2019-05-06T08:11:18.391Z,11.68
2019-05-06T08:13:50.037Z,10.68
2019-05-06T08:16:22.650Z,11.45
2019-05-06T08:18:56.941Z,10.75
2019-05-06T08:21:38.672Z,13.40
2019-05-06T08:24:12.042Z,11.38
2019-05-06T08:26:43.713Z,11.55
2019-05-06T08:29:16.052Z,11.15
2019-05-06T08:31:47.826Z,11.63
2019-05-06T08:34:19.715Z,11.00
2019-05-06T08:36:53.378Z,11.03
2019-05-06T08:39:25.120Z,12.43
2019-05-06T08:41:56.816Z,11.63
2019-05-06T08:44:28.628Z,12.95
2019-05-06T08:47:02.436Z,11.10
2019-05-06T08:49:34.600Z,11.03
2019-05-06T08:52:13.480Z,11.38
2019-05-06T08:54:49.554Z,12.18
2019-05-06T08:57:22.750Z,12.03
2019-05-06T08:59:54.361Z,12.75
2019-05-06T09:02:26.249Z,11.68
2019-05-06T09:04:58.019Z,11.65
2019-05-06T09:07:31.883Z,13.45
2019-05-06T09:10:02.835Z,13.03
2019-05-06T09:12:34.313Z,13.25
2019-05-06T09:15:06.097Z,15.13
2019-05-06T09:17:37.641Z,13.85
2019-05-06T09:20:09.831Z,13.98
2019-05-06T09:22:42.943Z,13.60
2019-05-06T09:25:14.498Z,12.73
2019-05-06T09:27:50.052Z,13.35
2019-05-06T09:30:38.649Z,14.73
2019-05-06T09:33:10.442Z,13.43
2019-05-06T09:35:42.402Z,13.53
2019-05-06T09:38:13.813Z,14.45
2019-05-06T09:40:45.283Z,15.68
2019-05-06T09:43:16.954Z,17.67
2019-05-06T09:45:48.677Z,17.80
2019-05-06T09:48:22.437Z,15.38
2019-05-06T09:50:54.355Z,13.48
2019-05-06T09:53:30.404Z,13.65
2019-05-06T09:56:06.789Z,12.90
2019-05-06T09:58:42.943Z,13.48
2019-05-06T10:01:14.198Z,13.45
2019-05-06T10:03:45.973Z,13.83
2019-05-06T10:06:17.710Z,13.10
2019-05-06T10:08:49.619Z,12.95
2019-05-06T10:11:22.330Z,15.58
2019-05-06T10:13:54.198Z,15.78
2019-05-06T10:16:25.770Z,15.03
2019-05-06T10:18:57.532Z,21.35
2019-05-06T10:21:32.191Z,14.68
2019-05-06T10:24:02.537Z,16.45
2019-05-06T10:26:35.550Z,17.57
2019-05-06T10:29:08.995Z,15.32
2019-05-06T10:31:48.532Z,12.55
2019-05-06T10:34:22.097Z,13.55
2019-05-06T10:37:11.684Z,12.98
2019-05-06T10:42:14.324Z,11.65
2019-05-06T10:44:54.054Z,11.70
2019-05-06T10:47:25.848Z,8.30
2019-05-06T10:49:57.549Z,9.20
2019-05-06T10:52:51.713Z,9.25
2019-05-06T10:55:23.317Z,7.87
2019-05-06T10:57:55.330Z,8.18
2019-05-06T11:00:27.064Z,8.78
2019-05-06T11:03:14.961Z,9.85
2019-05-06T11:08:16.353Z,9.70
2019-05-06T11:10:48.182Z,9.90
2019-05-06T11:13:20.097Z,11.65
2019-05-06T11:15:55.076Z,11.60
2019-05-06T11:18:24.910Z,11.70
2019-05-06T11:20:56.661Z,9.85
2019-05-06T11:23:30.930Z,13.90
2019-05-06T11:26:03.079Z,14.83
2019-05-06T11:28:54.861Z,14.20
2019-05-06T11:31:33.944Z,15.15
2019-05-06T11:34:12.488Z,14.70
2019-05-06T11:36:47.665Z,16.23
2019-05-06T11:39:19.521Z,16.73
2019-05-06T11:42:14.416Z,17.25
2019-05-06T11:44:24.484Z,17.73
2019-05-06T11:46:56.142Z,19.17
2019-05-06T11:49:27.616Z,19.35
2019-05-06T11:51:59.391Z,19.12
2019-05-06T11:54:33.578Z,17.87
2019-05-06T11:57:04.853Z,20.97
2019-05-06T11:59:36.362Z,17.32
2019-05-06T12:02:09.178Z,18.87
2019-05-06T12:04:41.950Z,19.85
2019-05-06T12:07:15.873Z,20.90
2019-05-06T12:09:46.721Z,22.95
2019-05-06T12:12:18.486Z,22.73
2019-05-06T12:14:52.474Z,25.40
2019-05-06T12:17:23.420Z,21.55
2019-05-06T12:19:54.999Z,22.32
2019-05-06T12:22:27.949Z,18.10
2019-05-06T12:24:59.980Z,17.17
2019-05-06T12:27:47.402Z,17.95
2019-05-06T12:30:22.983Z,14.68
2019-05-06T12:33:03.215Z,14.30
2019-05-06T12:35:36.198Z,13.65
2019-05-06T12:38:26.537Z,13.72
2019-05-06T12:40:47.945Z,16.05
2019-05-06T12:43:27.699Z,13.83
2019-05-06T12:46:06.582Z,13.15
2019-05-06T12:48:44.030Z,14.65
2019-05-06T12:51:15.867Z,12.37
2019-05-06T12:53:47.571Z,12.75
2019-05-06T12:56:19.210Z,10.20
2019-05-06T12:58:52.599Z,13.28
2019-05-06T13:01:24.034Z,10.68
2019-05-06T13:03:55.747Z,10.60
2019-05-06T13:06:27.285Z,9.68
2019-05-06T13:09:04.162Z,9.03
2019-05-06T13:11:32.092Z,9.63
2019-05-06T13:14:04.327Z,9.20
2019-05-06T13:16:35.746Z,10.38
2019-05-06T13:19:07.694Z,8.58
2019-05-06T13:21:39.561Z,8.73
2019-05-06T13:24:12.137Z,9.43
2019-05-06T13:26:44.216Z,9.70
2019-05-06T13:29:17.515Z,8.78
2019-05-06T13:31:49.156Z,7.75
2019-05-06T13:34:23.481Z,7.15
2019-05-06T13:36:54.532Z,7.85
2019-05-06T13:39:26.330Z,8.15
2019-05-06T13:41:58.072Z,7.83
2019-05-06T13:44:31.888Z,7.40
2019-05-06T13:47:03.102Z,7.03
2019-05-06T13:49:36.263Z,7.12
2019-05-06T13:52:08.977Z,7.15
2019-05-06T13:54:42.175Z,7.92
2019-05-06T13:57:14.150Z,7.58
2019-05-06T13:59:45.876Z,7.72
2019-05-06T14:02:21.669Z,8.03
2019-05-06T14:04:53.642Z,7.20
2019-05-06T14:07:25.406Z,5.90
2019-05-06T14:09:57.301Z,6.60
2019-05-06T14:12:28.821Z,5.28
2019-05-06T14:15:03.995Z,5.75
2019-05-06T14:17:33.845Z,5.62
2019-05-06T14:20:05.477Z,6.33
2019-05-06T14:22:37.194Z,4.90
2019-05-06T14:25:27.581Z,5.20
2019-05-06T14:28:03.222Z,5.17
2019-05-06T14:30:36.526Z,5.03
2019-05-06T14:33:08.331Z,5.85
2019-05-06T14:35:40.240Z,4.25
2019-05-06T14:38:13.622Z,4.62
2019-05-06T14:41:04.401Z,5.15
2019-05-06T14:43:35.369Z,5.87
2019-05-06T14:46:07.333Z,5.42
2019-05-06T14:48:39.121Z,5.97
2019-05-06T14:51:12.892Z,5.42
2019-05-06T14:53:44.027Z,5.03
2019-05-06T14:56:17.167Z,5.15
2019-05-06T14:59:07.921Z,5.40
2019-05-06T15:01:40.194Z,5.83
2019-05-06T15:04:12.539Z,5.53
2019-05-06T15:06:44.574Z,6.33
2019-05-06T15:09:15.953Z,5.97
2019-05-06T15:11:47.809Z,5.83
2019-05-06T15:14:19.636Z,6.20
2019-05-06T15:16:52.769Z,5.85
2019-05-06T15:19:24.630Z,6.42
2019-05-06T15:21:56.572Z,6.47
2019-05-06T15:24:28.213Z,5.80
2019-05-06T15:26:59.828Z,6.25
2019-05-06T15:29:31.785Z,6.20
2019-05-06T15:32:12.852Z,6.40
2019-05-06T15:34:56.900Z,6.12
2019-05-06T15:37:29.934Z,5.97
2019-05-06T15:40:03.053Z,5.70
2019-05-06T15:42:34.489Z,7.80
2019-05-06T15:45:07.520Z,6.37
2019-05-06T15:47:39.399Z,6.22
2019-05-06T15:50:12.737Z,7.60
2019-05-06T15:52:43.890Z,7.60
2019-05-06T15:55:15.553Z,7.70
2019-05-06T15:57:47.164Z,7.92
2019-05-06T16:00:22.311Z,7.45
2019-05-06T16:02:53.442Z,7.60
2019-05-06T16:05:26.435Z,7.90
2019-05-06T16:07:58.111Z,7.60
2019-05-06T16:10:29.606Z,7.42
2019-05-06T16:13:02.369Z,7.55
2019-05-06T16:15:34.328Z,8.50
2019-05-06T16:18:06.026Z,9.30
2019-05-06T16:20:37.812Z,8.93
2019-05-06T16:23:13.451Z,8.48
2019-05-06T16:25:45.028Z,7.87
2019-05-06T16:28:16.794Z,8.60
2019-05-06T16:30:49.492Z,7.87
2019-05-06T16:33:22.057Z,8.33
2019-05-06T16:35:54.297Z,7.20
2019-05-06T16:38:25.927Z,7.33
2019-05-06T16:41:09.389Z,7.45
2019-05-06T16:43:34.062Z,6.00
2019-05-06T16:46:03.690Z,6.08
2019-05-06T16:48:35.544Z,6.92
2019-05-06T16:51:07.240Z,5.92
2019-05-06T16:53:38.982Z,6.12
2019-05-06T16:56:23.939Z,5.75
2019-05-06T16:58:59.716Z,7.00
2019-05-06T17:01:34.068Z,6.40
2019-05-06T17:04:08.090Z,6.40
2019-05-06T17:06:43.043Z,4.72
2019-05-06T17:09:20.760Z,5.03
2019-05-06T17:11:47.631Z,5.30
2019-05-06T17:14:19.621Z,5.00
2019-05-06T17:16:52.700Z,5.10
2019-05-06T17:19:24.388Z,6.42
2019-05-06T17:21:56.221Z,6.28
2019-05-06T17:24:28.096Z,5.62
2019-05-06T17:26:59.314Z,6.05
2019-05-06T17:29:44.857Z,5.53
2019-05-06T17:32:28.744Z,5.60
2019-05-06T17:35:04.878Z,4.95
2019-05-06T17:37:56.268Z,5.25
2019-05-06T17:40:28.355Z,5.45
2019-05-06T17:43:02.401Z,6.08
2019-05-06T17:45:59.397Z,5.65
2019-05-06T17:48:27.940Z,6.22
2019-05-06T17:51:13.936Z,5.53
2019-05-06T17:53:52.109Z,6.10
2019-05-06T17:56:23.130Z,5.90
2019-05-06T17:58:54.680Z,5.78
2019-05-06T18:01:27.982Z,6.20
2019-05-06T18:04:02.089Z,6.47
2019-05-06T18:06:33.177Z,6.17
2019-05-06T18:09:05.145Z,5.67
2019-05-06T18:11:36.896Z,6.37
2019-05-06T18:14:08.627Z,5.97
2019-05-06T18:16:42.561Z,5.95
2019-05-06T18:19:13.164Z,6.67
2019-05-06T18:21:44.574Z,5.87
2019-05-06T18:24:16.309Z,6.37
2019-05-06T18:26:48.074Z,6.12
2019-05-06T18:29:21.624Z,6.10
2019-05-06T18:31:52.816Z,7.22
2019-05-06T18:34:24.686Z,6.22
2019-05-06T18:36:56.137Z,6.55
2019-05-06T18:39:27.646Z,6.70
2019-05-06T18:42:14.960Z,5.65
2019-05-06T18:44:33.220Z,5.85
2019-05-06T18:47:04.892Z,5.33
2019-05-06T18:49:36.542Z,5.45
2019-05-06T18:52:08.317Z,6.45
2019-05-06T18:54:42.727Z,6.28
2019-05-06T18:57:13.207Z,6.42
2019-05-06T18:59:45.126Z,6.40
2019-05-06T19:02:16.615Z,6.72
2019-05-06T19:04:52.136Z,6.90
2019-05-06T19:07:23.070Z,7.55
2019-05-06T19:09:56.207Z,9.53
2019-05-06T19:12:32.614Z,7.75
2019-05-06T19:15:03.126Z,6.92
2019-05-06T19:17:33.814Z,7.03
2019-05-06T19:20:05.892Z,7.78
2019-05-06T19:22:37.577Z,8.45
2019-05-06T19:25:12.396Z,8.73
2019-05-06T19:27:42.709Z,6.67
2019-05-06T19:30:14.865Z,7.22
2019-05-06T19:32:46.652Z,7.00
2019-05-06T19:35:18.906Z,7.00
2019-05-06T19:37:50.771Z,7.08
2019-05-06T19:40:22.927Z,7.58
2019-05-06T19:42:54.806Z,7.20
2019-05-06T19:45:29.142Z,7.47
2019-05-06T19:47:59.562Z,8.65
2019-05-06T19:50:32.821Z,7.25
2019-05-06T19:53:04.210Z,7.33
2019-05-06T19:55:35.870Z,7.92
2019-05-06T19:58:07.827Z,7.83
2019-05-06T20:00:41.917Z,7.33
2019-05-06T20:03:12.807Z,7.08
2019-05-06T20:05:45.987Z,6.78
2019-05-06T20:08:19.128Z,7.60
2019-05-06T20:11:08.854Z,8.45
2019-05-06T20:13:40.624Z,6.53
2019-05-06T20:16:12.506Z,7.03
2019-05-06T20:18:44.394Z,6.15
2019-05-06T20:21:16.117Z,8.83
2019-05-06T20:23:48.056Z,8.48
2019-05-06T20:26:21.441Z,10.08
2019-05-06T20:28:53.330Z,8.33
2019-05-06T20:31:24.806Z,8.48
2019-05-06T20:33:56.253Z,8.33
2019-05-06T20:36:28.534Z,7.58
2019-05-06T20:39:02.344Z,7.05
2019-05-06T20:41:33.015Z,9.70
2019-05-06T20:44:04.919Z,8.55
2019-05-06T20:46:36.564Z,7.45
2019-05-06T20:49:08.224Z,9.08
2019-05-06T20:51:42.282Z,8.03
2019-05-06T20:54:13.113Z,8.58
2019-05-06T20:56:44.990Z,9.05
2019-05-06T20:59:16.645Z,8.65
2019-05-06T21:01:48.412Z,9.08
2019-05-06T21:04:20.034Z,7.05
2019-05-06T21:06:51.898Z,8.63
2019-05-06T21:09:23.540Z,7.35
2019-05-06T21:11:55.354Z,10.23
2019-05-06T21:14:26.900Z,10.53
2019-05-06T21:16:58.510Z,9.70
2019-05-06T21:19:30.357Z,9.70
2019-05-06T21:22:02.290Z,10.90
2019-05-06T21:24:36.071Z,11.18
2019-05-06T21:27:07.212Z,11.35
2019-05-06T21:29:38.892Z,10.82
2019-05-06T21:32:10.805Z,10.03
2019-05-06T21:34:43.218Z,9.53
2019-05-06T21:37:15.238Z,9.53
2019-05-06T21:39:46.870Z,10.32
2019-05-06T21:42:18.741Z,9.08
2019-05-06T21:44:52.147Z,11.25
2019-05-06T21:47:23.766Z,10.80
2019-05-06T21:49:55.408Z,8.88
2019-05-06T21:52:36.216Z,9.48
2019-05-06T21:55:02.392Z,9.33
2019-05-06T21:57:33.587Z,10.70
2019-05-06T22:00:06.723Z,10.28
2019-05-06T22:02:38.449Z,11.60
2019-05-06T22:05:10.441Z,9.98
2019-05-06T22:07:43.321Z,8.63
2019-05-06T22:10:15.441Z,10.18
2019-05-06T22:12:47.330Z,8.80
2019-05-06T22:15:18.866Z,8.93
2019-05-06T22:17:54.278Z,8.88
2019-05-06T22:20:23.897Z,9.35
2019-05-06T22:22:55.652Z,7.87
2019-05-06T22:25:27.436Z,8.58
2019-05-06T22:27:59.145Z,8.05
2019-05-06T22:30:32.804Z,8.45
2019-05-06T22:33:03.852Z,8.80
2019-05-06T22:35:35.537Z,10.18
2019-05-06T22:38:07.544Z,8.93
2019-05-06T22:40:39.195Z,10.40
2019-05-06T22:43:12.320Z,10.00
2019-05-06T22:45:43.898Z,8.20
2019-05-06T22:48:15.993Z,10.25
2019-05-06T22:50:47.716Z,10.88
2019-05-06T22:53:19.393Z,10.93
2019-05-06T22:55:51.128Z,11.18
2019-05-06T22:58:22.880Z,8.93
2019-05-06T23:00:55.953Z,13.32
2019-05-06T23:03:34.472Z,13.83
2019-05-06T23:06:05.308Z,13.70
2019-05-06T23:08:37.018Z,12.18
2019-05-06T23:11:08.755Z,10.10
2019-05-06T23:13:41.891Z,10.65
2019-05-06T23:16:13.532Z,9.35
2019-05-06T23:18:45.266Z,8.38
2019-05-06T23:21:17.004Z,8.83
2019-05-06T23:23:48.717Z,8.33
2019-05-06T23:26:22.776Z,9.70
2019-05-06T23:28:54.595Z,9.25
2019-05-06T23:31:26.384Z,9.55
2019-05-06T23:33:58.209Z,8.68
2019-05-06T23:36:30.983Z,8.38
2019-05-06T23:39:42.852Z,9.05
2019-05-06T23:42:52.595Z,9.13
2019-05-06T23:46:02.263Z,9.55
2019-05-06T23:49:09.075Z,10.70
2019-05-06T23:52:16.601Z,10.98
2019-05-06T23:55:24.175Z,9.23
2019-05-06T23:57:54.216Z,10.25
